Time;durP1;ratioP1;P1;durP2;ratioP2;P2;SDS_P1;SDS_P2;PMS_P1;PMS_P2;Temp;Humidity;BMP_temperature;BMP_pressure;BME280_temperature;BME280_humidity;BME280_pressure;Samples;Min_cycle;Max_cycle;Signal;HPM_P1;HPM_P2
2022/10/31 00:01:26;;;;;;;8.52;3.35;;;;;;;15.16;65.56;95003.38;5052588;22;20216;-61
2022/10/31 00:03:52;;;;;;;7.15;2.95;;;;;;;15.15;65.86;94992.31;5072468;28;20197;-60
2022/10/31 00:06:18;;;;;;;6.55;3.25;;;;;;;15.11;66.19;94978.19;5072701;28;20578;-60
2022/10/31 00:08:51;;;;;;;6.72;3.47;;;;;;;15.11;66.26;94983.31;5072776;28;20185;-61
2022/10/31 00:11:16;;;;;;;5.50;2.78;;;;;;;15.09;66.27;94987.78;5072869;28;20642;-60
2022/10/31 00:13:42;;;;;;;6.43;3.45;;;;;;;15.12;66.23;94987.50;5072390;28;20212;-62
2022/10/31 00:16:19;;;;;;;6.93;3.88;;;;;;;15.11;66.66;94967.97;5072605;28;20181;-61
2022/10/31 00:18:49;;;;;;;5.15;3.22;;;;;;;15.14;66.85;94966.84;5072246;28;20256;-60
2022/10/31 00:21:14;;;;;;;5.00;3.08;;;;;;;15.12;67.25;94961.91;5072649;28;20219;-60
2022/10/31 00:23:40;;;;;;;6.75;3.33;;;;;;;15.12;67.15;94966.22;5072170;28;20201;-60
2022/10/31 00:26:06;;;;;;;5.63;3.10;;;;;;;15.12;67.25;94972.13;5072379;28;20188;-61
2022/10/31 00:28:32;;;;;;;5.68;3.10;;;;;;;15.14;67.90;94949.75;5054396;28;20223;-60
2022/10/31 00:31:00;;;;;;;5.88;3.13;;;;;;;15.12;67.57;94961.91;5072158;28;20213;-61
2022/10/31 00:33:26;;;;;;;3.80;3.13;;;;;;;15.17;67.44;94960.63;5071918;28;20220;-62
2022/10/31 00:35:52;;;;;;;3.78;2.70;;;;;;;15.22;67.43;94966.91;5054159;28;20239;-59
2022/10/31 00:38:17;;;;;;;5.47;2.97;;;;;;;15.21;67.66;94955.03;5072123;28;20229;-60
2022/10/31 00:40:42;;;;;;;5.82;3.45;;;;;;;15.26;67.70;94952.84;5072010;28;20209;-61
2022/10/31 00:43:08;;;;;;;5.70;3.45;;;;;;;15.26;67.49;94957.16;5072022;28;20213;-62
2022/10/31 00:45:33;;;;;;;5.60;3.38;;;;;;;15.17;67.40;94963.19;5071888;28;20213;-61
2022/10/31 00:47:59;;;;;;;5.22;3.40;;;;;;;15.17;67.62;94950.41;5071832;28;20263;-62
2022/10/31 00:50:24;;;;;;;5.57;3.05;;;;;;;15.20;67.97;94957.75;5071558;28;20213;-62
2022/10/31 00:52:49;;;;;;;3.95;2.83;;;;;;;15.14;67.93;94957.44;5072043;28;20188;-60
2022/10/31 00:55:15;;;;;;;4.10;2.92;;;;;;;15.28;68.02;94960.38;5071863;28;20291;-62
2022/10/31 00:57:40;;;;;;;6.13;3.45;;;;;;;15.37;67.33;94964.63;5071885;28;20181;-60
2022/10/31 01:00:06;;;;;;;3.78;2.75;;;;;;;15.34;67.73;94959.78;5070449;28;20729;-59
2022/10/31 01:02:32;;;;;;;8.98;2.97;;;;;;;15.38;67.32;94979.81;5071990;28;20212;-60
2022/10/31 01:04:57;;;;;;;4.90;3.20;;;;;;;15.33;67.90;94965.88;5072375;28;20738;-62
2022/10/31 01:07:23;;;;;;;4.55;3.10;;;;;;;15.32;67.48;94966.81;5072242;28;20196;-61
2022/10/31 01:09:48;;;;;;;7.93;3.20;;;;;;;15.20;68.31;94948.34;5071682;28;20209;-60
2022/10/31 01:12:13;;;;;;;6.07;3.17;;;;;;;15.34;68.10;94962.34;5074175;28;20254;-61
2022/10/31 01:14:44;;;;;;;8.48;3.40;;;;;;;15.28;68.18;94957.81;5071862;28;20259;-60
2022/10/31 01:17:10;;;;;;;5.43;2.92;;;;;;;15.32;68.37;94954.81;5072269;28;20193;-60
2022/10/31 01:19:35;;;;;;;6.25;3.03;;;;;;;15.36;68.67;94947.63;5071479;28;20227;-59
2022/10/31 01:22:01;;;;;;;6.15;3.42;;;;;;;15.39;67.58;94971.16;5070467;28;20280;-60
2022/10/31 01:24:26;;;;;;;11.32;3.88;;;;;;;15.38;68.59;94964.44;5071658;28;20603;-61
2022/10/31 01:26:51;;;;;;;7.85;3.80;;;;;;;15.30;68.41;94968.72;5072060;28;20654;-63
2022/10/31 01:29:17;;;;;;;7.05;3.72;;;;;;;15.42;68.08;94975.19;5041292;23;20670;-61
2022/10/31 01:31:42;;;;;;;7.55;4.40;;;;;;;15.45;68.00;94975.75;5032424;28;20706;-62
2022/10/31 01:34:12;;;;;;;8.77;5.20;;;;;;;15.54;67.06;95003.00;5032764;28;20760;-61
2022/10/31 01:36:38;;;;;;;8.32;5.32;;;;;;;15.42;67.65;94983.72;5032253;28;20189;-60
2022/10/31 01:39:10;;;;;;;8.55;5.70;;;;;;;15.15;69.41;94942.84;5031951;28;20264;-61
2022/10/31 01:41:38;;;;;;;12.35;5.53;;;;;;;14.97;70.59;94929.28;5031291;28;20300;-62
2022/10/31 01:44:24;;;;;;;8.23;5.60;;;;;;;14.92;70.22;94927.19;5031790;28;20242;-61
2022/10/31 01:46:52;;;;;;;9.90;5.95;;;;;;;14.89;70.90;94926.66;4984271;28;20280;-58
2022/10/31 01:49:17;;;;;;;11.85;5.65;;;;;;;14.85;70.98;94930.47;5032228;28;20213;-62
2022/10/31 01:51:54;;;;;;;7.72;5.10;;;;;;;14.67;72.27;94906.66;5032870;28;20194;-60
2022/10/31 01:54:23;;;;;;;7.05;5.28;;;;;;;14.71;71.81;94920.75;5035562;28;20205;-60
2022/10/31 01:56:54;;;;;;;8.93;5.30;;;;;;;14.61;72.02;94902.94;5031399;28;20191;-60
2022/10/31 01:59:20;;;;;;;7.80;4.97;;;;;;;14.51;72.22;94899.66;5031299;28;20644;-60
2022/10/31 02:01:49;;;;;;;9.07;5.22;;;;;;;14.54;72.15;94901.94;5031870;28;20597;-60
2022/10/31 02:04:15;;;;;;;9.10;5.22;;;;;;;14.45;72.64;94890.03;5030496;28;20211;-59
2022/10/31 02:07:06;;;;;;;9.60;5.47;;;;;;;14.47;73.67;94883.00;5031123;28;20231;-59
2022/10/31 02:09:33;;;;;;;8.80;4.78;;;;;;;14.52;73.65;94874.91;5031264;28;20213;-60
2022/10/31 02:11:59;;;;;;;16.60;5.13;;;;;;;14.54;73.47;94881.47;5033512;28;20178;-62
2022/10/31 02:14:28;;;;;;;8.73;4.57;;;;;;;14.45;73.92;94869.56;5017448;28;20210;-62
2022/10/31 02:16:54;;;;;;;6.95;3.72;;;;;;;14.41;73.50;94880.22;5035292;28;20186;-61
2022/10/31 02:19:46;;;;;;;5.95;3.35;;;;;;;14.35;73.94;94878.25;5034752;28;20255;-61
2022/10/31 02:22:26;;;;;;;8.60;3.60;;;;;;;14.42;72.53;94902.31;5035126;28;20297;-60
2022/10/31 02:25:26;;;;;;;4.25;3.20;;;;;;;14.34;74.09;94882.59;5034736;28;20567;-61
2022/10/31 02:27:54;;;;;;;8.15;4.15;;;;;;;14.30;74.08;94884.63;5010919;28;20288;-62
2022/10/31 02:30:29;;;;;;;6.30;3.13;;;;;;;14.56;73.67;94907.72;5034678;28;20209;-61
2022/10/31 02:33:04;;;;;;;4.97;2.97;;;;;;;14.44;73.76;94900.41;5035011;28;20228;-59
2022/10/31 02:35:48;;;;;;;5.47;2.90;;;;;;;14.28;74.96;94889.06;5034843;28;20250;-60
2022/10/31 02:38:29;;;;;;;6.80;3.25;;;;;;;14.22;74.96;94871.72;5035700;28;20218;-60
2022/10/31 02:41:18;;;;;;;6.05;3.05;;;;;;;14.45;73.89;94907.13;5035047;28;20210;-62
2022/10/31 02:44:01;;;;;;;5.00;3.17;;;;;;;14.47;74.22;94907.78;5035515;28;20190;-62
2022/10/31 02:46:49;;;;;;;4.00;2.97;;;;;;;14.50;73.28;94930.50;5035296;28;20606;-60
2022/10/31 02:49:38;;;;;;;4.47;2.72;;;;;;;14.47;73.81;94923.94;5035486;28;20264;-60
2022/10/31 02:52:33;;;;;;;6.05;3.00;;;;;;;14.53;72.87;94937.88;5034469;28;20271;-61
2022/10/31 02:54:58;;;;;;;5.20;2.88;;;;;;;14.44;73.44;94926.81;5033859;28;20233;-60
2022/10/31 02:57:31;;;;;;;4.32;2.92;;;;;;;14.32;74.19;94916.94;5035300;28;20194;-60
2022/10/31 03:00:05;;;;;;;5.20;2.63;;;;;;;14.22;75.42;94893.97;5034817;28;20218;-62
2022/10/31 03:02:48;;;;;;;5.07;3.00;;;;;;;14.29;75.20;94903.47;5034635;28;20264;-60
2022/10/31 03:05:29;;;;;;;6.03;3.33;;;;;;;14.35;75.40;94903.81;5036055;28;20672;-60
2022/10/31 03:08:19;;;;;;;7.43;3.13;;;;;;;14.37;75.25;94902.75;5032756;28;20190;-60
2022/10/31 03:10:53;;;;;;;5.30;2.90;;;;;;;14.49;75.18;94911.00;5074603;22;20240;-59
2022/10/31 03:13:21;;;;;;;6.37;2.97;;;;;;;14.54;75.37;94906.25;5074416;28;20262;-60
2022/10/31 03:15:51;;;;;;;11.85;3.47;;;;;;;14.51;75.72;94902.22;5074259;28;20574;-61
2022/10/31 03:18:32;;;;;;;5.50;2.75;;;;;;;14.55;76.20;94892.50;5074504;28;20200;-59
2022/10/31 03:21:05;;;;;;;8.73;2.95;;;;;;;14.51;75.95;94909.09;5075273;28;20261;-59
2022/10/31 03:23:33;;;;;;;5.47;3.72;;;;;;;14.56;75.10;94922.25;5074611;28;20723;-60
2022/10/31 03:26:01;;;;;;;8.63;3.78;;;;;;;14.57;75.52;94916.16;5058200;28;20755;-61
2022/10/31 03:28:30;;;;;;;3.47;2.70;;;;;;;14.61;75.57;94918.28;5075062;28;20177;-59
2022/10/31 03:30:57;;;;;;;3.92;3.28;;;;;;;14.87;74.86;94939.63;5074274;28;20189;-61
2022/10/31 03:33:27;;;;;;;6.72;3.47;;;;;;;14.77;75.92;94927.84;5074307;28;20263;-61
2022/10/31 03:35:57;;;;;;;6.00;3.60;;;;;;;14.62;76.65;94911.44;5073526;28;20237;-60
2022/10/31 03:38:22;;;;;;;3.90;2.78;;;;;;;14.72;75.86;94935.19;5071905;28;20201;-59
2022/10/31 03:40:51;;;;;;;5.13;3.40;;;;;;;14.49;76.45;94911.78;5073614;28;20675;-61
2022/10/31 03:43:26;;;;;;;4.85;3.20;;;;;;;14.65;75.56;94942.63;5074224;28;20691;-60
2022/10/31 03:45:52;;;;;;;7.78;3.20;;;;;;;14.69;74.86;94959.31;5074322;28;20299;-61
2022/10/31 03:48:20;;;;;;;7.97;3.33;;;;;;;14.62;74.52;94963.41;5074284;28;20177;-59
2022/10/31 03:51:04;;;;;;;6.60;3.22;;;;;;;14.29;75.91;94930.81;5074925;28;20201;-60
2022/10/31 03:54:02;;;;;;;7.82;3.47;;;;;;;14.18;77.29;94913.09;5074499;28;20188;-61
2022/10/31 03:56:38;;;;;;;5.78;3.15;;;;;;;14.25;77.49;94912.38;5074065;28;20229;-61
2022/10/31 03:59:16;;;;;;;4.00;3.10;;;;;;;14.35;77.15;94921.72;5075196;28;20219;-59
2022/10/31 04:01:50;;;;;;;6.90;3.25;;;;;;;14.27;77.15;94933.47;5074252;28;20605;-60
2022/10/31 04:04:16;;;;;;;6.20;3.30;;;;;;;14.35;77.32;94947.31;5074163;28;20298;-60
2022/10/31 04:06:45;;;;;;;8.00;3.55;;;;;;;14.47;76.18;94949.50;5074907;28;20223;-60
2022/10/31 04:09:13;;;;;;;6.40;3.70;;;;;;;14.35;76.98;94948.13;5073306;28;20235;-61
2022/10/31 04:11:45;;;;;;;6.32;4.00;;;;;;;14.38;77.42;94942.72;5072896;28;20234;-59
2022/10/31 04:14:11;;;;;;;5.35;3.60;;;;;;;14.24;78.34;94932.97;5074214;28;20212;-59
2022/10/31 04:16:40;;;;;;;7.07;4.03;;;;;;;14.25;78.03;94939.69;5073146;28;20193;-59
2022/10/31 04:19:05;;;;;;;8.13;4.18;;;;;;;14.20;78.47;94935.00;5073543;28;20208;-59
2022/10/31 04:21:31;;;;;;;6.55;4.55;;;;;;;14.16;79.00;94933.69;5075143;28;20698;-59
2022/10/31 04:23:57;;;;;;;8.73;3.90;;;;;;;14.05;79.06;94923.66;5073583;28;20617;-62
2022/10/31 04:26:29;;;;;;;6.05;4.40;;;;;;;14.05;79.19;94927.97;5075449;28;20192;-60
2022/10/31 04:28:54;;;;;;;9.52;5.05;;;;;;;14.17;78.99;94942.16;5073915;28;20212;-60
2022/10/31 04:31:20;;;;;;;6.13;4.55;;;;;;;14.33;78.63;94952.56;5075103;28;20387;-62
2022/10/31 04:33:45;;;;;;;8.38;5.13;;;;;;;14.40;78.03;94963.03;5075120;28;20677;-59
2022/10/31 04:36:11;;;;;;;8.73;5.50;;;;;;;14.17;79.09;94948.09;5072520;28;20674;-59
2022/10/31 04:38:36;;;;;;;10.65;5.18;;;;;;;14.30;79.05;94945.22;5072012;28;20246;-59
2022/10/31 04:41:02;;;;;;;12.35;4.90;;;;;;;14.16;79.90;94927.75;5072781;28;20287;-60
2022/10/31 04:43:27;;;;;;;10.45;5.60;;;;;;;13.99;81.28;94914.03;5073590;28;20223;-59
2022/10/31 04:45:53;;;;;;;9.88;5.75;;;;;;;13.99;81.53;94923.44;5072368;28;20697;-60
2022/10/31 04:48:18;;;;;;;9.32;5.78;;;;;;;14.05;80.87;94930.53;5073314;28;20658;-63
2022/10/31 04:50:44;;;;;;;9.93;5.57;;;;;;;14.09;81.28;94932.66;5074448;28;20296;-59
2022/10/31 04:53:09;;;;;;;8.18;5.13;;;;;;;14.30;80.33;94956.22;5055499;28;20189;-59
2022/10/31 04:55:37;;;;;;;10.30;5.95;;;;;;;14.51;79.67;94976.41;5072207;28;20209;-60
2022/10/31 04:58:03;;;;;;;12.65;5.70;;;;;;;14.47;79.43;94985.31;5071598;28;20194;-59
2022/10/31 05:00:29;;;;;;;7.93;5.13;;;;;;;14.62;100.00;95006.91;5072346;28;20328;-59
2022/10/31 05:02:57;;;;;;;11.10;6.85;;;;;;;14.50;84.06;95153.91;5073085;28;20596;-59
2022/10/31 05:05:25;;;;;;;13.82;5.93;;;;;;;14.23;84.10;95128.25;5054962;28;20209;-62
2022/10/31 05:07:52;;;;;;;9.40;5.90;;;;;;;14.06;83.98;95119.56;5073674;28;20195;-61
2022/10/31 05:10:20;;;;;;;6.82;4.97;;;;;;;14.08;84.37;95122.78;5071996;28;20216;-60
2022/10/31 05:12:54;;;;;;;7.15;5.30;;;;;;;14.22;82.78;95142.00;5072391;28;20185;-60
2022/10/31 05:15:22;;;;;;;8.30;5.38;;;;;;;14.24;82.16;95140.13;5073199;28;20205;-62
2022/10/31 05:17:47;;;;;;;11.52;5.70;;;;;;;14.26;81.90;95146.69;5072929;28;20185;-60
2022/10/31 05:20:15;;;;;;;17.30;6.40;;;;;;;14.28;81.68;95154.25;5072311;28;20266;-59
2022/10/31 05:22:45;;;;;;;11.70;6.15;;;;;;;14.34;82.09;95158.81;5072237;28;20212;-62
2022/10/31 05:25:11;;;;;;;10.77;6.28;;;;;;;14.37;81.04;95175.63;5073270;28;20698;-60
2022/10/31 05:27:41;;;;;;;10.52;5.43;;;;;;;14.44;81.74;95162.16;5073737;28;20662;-61
2022/10/31 05:30:10;;;;;;;11.00;6.13;;;;;;;14.43;81.64;95152.84;5073303;28;20236;-60
2022/10/31 05:32:45;;;;;;;12.85;6.93;;;;;;;14.45;81.01;95161.19;5072709;28;20674;-61
2022/10/31 05:35:20;;;;;;;11.15;5.65;;;;;;;14.53;80.86;95168.97;5073860;28;20682;-61
2022/10/31 05:37:45;;;;;;;14.95;6.45;;;;;;;14.45;81.59;95168.03;5074534;28;20633;-61
2022/10/31 05:40:13;;;;;;;10.38;6.90;;;;;;;14.48;81.44;95163.47;5076188;28;20613;-61
2022/10/31 05:42:40;;;;;;;11.05;6.47;;;;;;;14.41;81.43;95159.84;5072997;28;20212;-61
2022/10/31 05:45:09;;;;;;;13.93;7.03;;;;;;;14.51;80.99;95183.66;5074180;28;20250;-60
2022/10/31 05:47:34;;;;;;;13.70;6.80;;;;;;;14.64;79.86;95185.91;5071782;28;20263;-63
2022/10/31 05:50:00;;;;;;;16.17;7.70;;;;;;;14.66;79.73;95196.78;5073546;28;20302;-60
2022/10/31 05:52:25;;;;;;;12.38;7.07;;;;;;;14.59;80.20;95199.09;5072965;28;20193;-60
2022/10/31 05:54:51;;;;;;;16.27;7.47;;;;;;;14.51;79.29;95198.19;5072255;28;20216;-61
2022/10/31 05:57:16;;;;;;;17.42;7.75;;;;;;;14.26;84.70;95089.63;5071300;28;20565;-59
2022/10/31 05:59:42;;;;;;;11.98;7.15;;;;;;;14.98;100.00;95087.88;5071072;28;20213;-62
2022/10/31 06:02:08;;;;;;;13.43;7.43;;;;;;;14.82;100.00;95268.66;5071065;28;20201;-60
2022/10/31 06:04:33;;;;;;;14.65;7.68;;;;;;;14.67;100.00;95296.47;5070853;28;20208;-60
2022/10/31 06:06:59;;;;;;;12.27;7.40;;;;;;;14.65;100.00;95311.16;5069897;28;20214;-61
2022/10/31 06:09:24;;;;;;;17.58;7.47;;;;;;;14.62;100.00;95298.63;5070598;28;20221;-61
2022/10/31 06:11:50;;;;;;;20.13;7.20;;;;;;;14.65;100.00;95303.47;5053244;28;20193;-63
2022/10/31 06:14:15;;;;;;;11.73;5.82;;;;;;;14.82;100.00;95336.03;5071144;28;20763;-58
2022/10/31 06:16:40;;;;;;;12.23;6.35;;;;;;;15.07;100.00;95157.88;5070727;28;20193;-60
2022/10/31 06:19:06;;;;;;;9.52;6.25;;;;;;;14.86;100.00;95316.09;5071392;28;20215;-61
2022/10/31 06:21:31;;;;;;;10.63;6.40;;;;;;;14.86;100.00;95332.25;5071076;28;20251;-60
2022/10/31 06:23:57;;;;;;;12.45;6.45;;;;;;;14.91;100.00;95340.31;5070469;28;20220;-61
2022/10/31 06:26:22;;;;;;;15.82;6.93;;;;;;;14.96;99.09;95358.63;5070713;28;20185;-60
2022/10/31 06:28:48;;;;;;;10.18;6.68;;;;;;;14.72;100.00;95313.97;5071166;28;20199;-60
2022/10/31 06:31:13;;;;;;;16.10;7.28;;;;;;;14.61;100.00;95309.81;5070476;28;20310;-61
2022/10/31 06:33:41;;;;;;;10.13;6.00;;;;;;;14.69;100.00;95319.34;5070413;28;20545;-61
2022/10/31 06:36:07;;;;;;;10.68;5.85;;;;;;;14.86;100.00;95334.00;5070108;28;20192;-60
2022/10/31 06:38:33;;;;;;;9.43;5.85;;;;;;;14.71;100.00;95294.41;5052249;28;20189;-63
2022/10/31 06:41:03;;;;;;;11.90;6.20;;;;;;;14.74;100.00;95297.53;5068418;28;20267;-60
2022/10/31 06:43:30;;;;;;;9.25;6.18;;;;;;;15.04;100.00;95325.47;5068791;28;20197;-60
2022/10/31 06:45:55;;;;;;;13.70;6.47;;;;;;;14.94;100.00;95301.63;5069705;28;20620;-62
2022/10/31 06:48:21;;;;;;;10.85;5.28;;;;;;;15.06;99.90;95331.25;5068765;28;20288;-61
2022/10/31 06:50:46;;;;;;;7.93;6.10;;;;;;;15.06;97.67;95374.78;5052314;28;20220;-63
2022/10/31 06:53:13;;;;;;;12.82;6.85;;;;;;;14.96;99.16;95330.47;5070469;28;20216;-62
2022/10/31 06:55:39;;;;;;;10.88;6.40;;;;;;;14.91;100.00;95309.59;5070455;28;20702;-62
2022/10/31 06:58:05;;;;;;;10.85;7.22;;;;;;;15.05;99.01;95332.19;5070127;28;20247;-59
2022/10/31 07:00:31;;;;;;;12.25;7.18;;;;;;;15.05;100.00;95306.56;5073345;28;20208;-59
2022/10/31 07:02:58;;;;;;;15.35;7.95;;;;;;;15.23;98.10;95351.94;5073442;28;20192;-61
2022/10/31 07:05:24;;;;;;;12.95;7.45;;;;;;;15.22;99.50;95330.63;5072197;28;20212;-59
2022/10/31 07:08:00;;;;;;;15.65;6.90;;;;;;;15.34;98.60;95339.75;5073375;28;20181;-61
2022/10/31 07:10:27;;;;;;;17.45;7.70;;;;;;;15.31;99.71;95311.84;5073719;28;20228;-60
2022/10/31 07:12:59;;;;;;;13.05;7.82;;;;;;;15.37;100.00;95307.94;5073383;28;20253;-60
2022/10/31 07:15:26;;;;;;;13.68;8.63;;;;;;;15.54;97.63;95361.81;5073420;28;20265;-60
2022/10/31 07:17:52;;;;;;;12.40;8.48;;;;;;;15.46;98.56;95336.09;5073276;28;20188;-60
2022/10/31 07:20:18;;;;;;;20.05;8.63;;;;;;;15.53;98.78;95326.06;5073326;28;20205;-60
2022/10/31 07:22:44;;;;;;;15.73;10.10;;;;;;;15.57;99.56;95299.22;5073089;28;20741;-60
2022/10/31 07:25:10;;;;;;;18.55;10.00;;;;;;;15.57;99.38;95301.78;5073237;28;20755;-60
2022/10/31 07:27:40;;;;;;;16.60;10.80;;;;;;;15.42;99.48;95286.06;5072932;28;20180;-60
2022/10/31 07:30:07;;;;;;;13.45;10.75;;;;;;;15.54;98.84;95307.16;5055676;28;20240;-60
2022/10/31 07:32:47;;;;;;;14.85;11.38;;;;;;;15.59;97.39;95338.31;5072965;28;20177;-59
2022/10/31 07:35:18;;;;;;;18.90;11.32;;;;;;;15.72;98.46;95305.44;5072888;28;20224;-60
2022/10/31 07:37:44;;;;;;;17.75;10.88;;;;;;;15.73;98.89;95302.75;5054795;28;20220;-60
2022/10/31 07:40:10;;;;;;;15.38;10.60;;;;;;;16.02;97.31;95333.31;5072956;28;20244;-60
2022/10/31 07:42:40;;;;;;;15.82;10.48;;;;;;;16.30;96.58;95360.50;5072593;28;20250;-59
2022/10/31 07:45:08;;;;;;;17.67;11.48;;;;;;;16.42;95.03;95389.34;5054595;28;20236;-59
2022/10/31 07:47:44;;;;;;;16.75;10.35;;;;;;;16.59;93.15;95415.03;5072830;28;20672;-60
2022/10/31 07:50:12;;;;;;;16.95;11.13;;;;;;;16.59;94.78;95383.41;5072733;28;20728;-61
2022/10/31 07:52:38;;;;;;;19.92;11.43;;;;;;;16.41;96.87;95329.50;5072992;28;20584;-60
2022/10/31 07:55:05;;;;;;;18.40;11.82;;;;;;;16.44;96.61;95342.00;5073029;28;20208;-61
2022/10/31 07:57:31;;;;;;;18.40;12.48;;;;;;;16.68;95.98;95360.19;5072378;28;20200;-59
2022/10/31 07:59:56;;;;;;;21.58;11.77;;;;;;;16.82;96.30;95347.78;5072708;28;20213;-62
2022/10/31 08:02:21;;;;;;;20.92;12.02;;;;;;;17.07;95.02;95388.09;5072447;28;20236;-61
2022/10/31 08:04:47;;;;;;;19.25;12.75;;;;;;;17.31;92.44;95437.84;5072729;28;20307;-61
2022/10/31 08:07:12;;;;;;;13.48;11.02;;;;;;;17.47;92.95;95419.97;5072657;28;20185;-62
2022/10/31 08:09:38;;;;;;;16.92;11.02;;;;;;;17.53;93.50;95398.81;5071887;28;20205;-59
2022/10/31 08:12:04;;;;;;;16.92;12.18;;;;;;;17.82;92.51;95431.88;5072407;28;20192;-60
2022/10/31 08:14:29;;;;;;;17.42;11.23;;;;;;;18.04;92.53;95420.25;5072713;28;20266;-61
2022/10/31 08:16:54;;;;;;;19.23;11.63;;;;;;;18.28;89.77;95479.53;5072390;28;20204;-63
2022/10/31 08:19:20;;;;;;;19.15;12.00;;;;;;;18.09;89.05;95474.63;5072630;28;20223;-60
2022/10/31 08:21:45;;;;;;;18.15;12.23;;;;;;;18.45;88.03;95506.94;5072226;28;20219;-60
2022/10/31 08:24:11;;;;;;;16.73;12.10;;;;;;;18.80;85.53;95542.78;5072366;28;20795;-61
2022/10/31 08:26:37;;;;;;;24.08;12.02;;;;;;;19.13;82.53;95605.50;5072501;28;20185;-61
2022/10/31 08:29:02;;;;;;;17.80;11.82;;;;;;;19.12;78.03;95598.72;5072312;28;20296;-59
2022/10/31 08:31:29;;;;;;;22.77;11.88;;;;;;;19.01;78.28;95534.59;5072289;28;20589;-62
2022/10/31 08:33:54;;;;;;;16.02;11.68;;;;;;;19.05;73.80;95461.13;5071923;28;20228;-60
2022/10/31 08:36:21;;;;;;;23.33;12.60;;;;;;;19.41;68.36;95526.91;5071984;28;20216;-59
2022/10/31 08:38:47;;;;;;;16.45;11.23;;;;;;;19.58;65.93;95556.06;5072194;28;20193;-60
2022/10/31 08:41:13;;;;;;;14.75;10.98;;;;;;;19.54;64.27;95583.97;5072423;28;20308;-60
2022/10/31 08:43:39;;;;;;;19.95;11.68;;;;;;;19.71;63.28;95606.22;5071969;28;20611;-60
2022/10/31 08:46:05;;;;;;;20.33;11.18;;;;;;;19.59;62.71;95597.22;5071756;28;20185;-61
2022/10/31 08:48:31;;;;;;;15.73;11.95;;;;;;;19.31;63.36;95570.06;5071678;28;20193;-59
2022/10/31 08:50:58;;;;;;;19.27;11.25;;;;;;;19.53;63.73;95559.16;5072223;28;20193;-61
2022/10/31 08:53:25;;;;;;;16.23;11.15;;;;;;;19.85;62.69;95586.69;5071766;28;20192;-61
2022/10/31 08:55:50;;;;;;;15.48;11.40;;;;;;;20.30;61.98;95609.41;5071537;28;20193;-62
2022/10/31 08:58:19;;;;;;;20.40;10.63;;;;;;;20.60;64.38;95523.38;5071662;28;20310;-61
2022/10/31 09:00:46;;;;;;;17.52;10.98;;;;;;;20.93;62.54;95577.31;5071624;28;20208;-61
2022/10/31 09:03:15;;;;;;;19.02;10.63;;;;;;;20.75;59.56;95648.31;5071423;28;20262;-60
2022/10/31 09:05:41;;;;;;;21.55;13.68;;;;;;;20.92;58.82;95650.69;5071281;28;20192;-62
2022/10/31 09:08:07;;;;;;;17.83;11.40;;;;;;;21.11;57.21;95684.91;5053663;28;20203;-61
2022/10/31 09:10:35;;;;;;;13.63;9.55;;;;;;;21.53;59.64;95587.75;5071250;28;20341;-59
2022/10/31 09:13:08;;;;;;;22.83;13.98;;;;;;;21.89;59.84;95585.38;5071521;28;20196;-60
2022/10/31 09:15:38;;;;;;;24.42;16.90;;;;;;;22.08;56.97;95654.00;5071286;28;20208;-60
2022/10/31 09:18:04;;;;;;;13.90;9.15;;;;;;;22.24;56.08;95672.78;5053452;28;20184;-59
2022/10/31 09:20:31;;;;;;;14.88;10.10;;;;;;;22.15;54.33;95710.13;5069813;28;20201;-60
2022/10/31 09:23:19;;;;;;;16.88;10.40;;;;;;;22.35;54.48;95697.47;5070672;28;20224;-60
2022/10/31 09:25:46;;;;;;;18.73;10.30;;;;;;;22.59;53.38;95706.81;5070962;28;20769;-61
2022/10/31 09:28:14;;;;;;;18.90;9.13;;;;;;;22.84;53.26;95703.00;5071182;28;20189;-61
2022/10/31 09:30:39;;;;;;;16.33;8.43;;;;;;;23.01;52.48;95720.78;5071484;28;20600;-62
2022/10/31 09:33:09;;;;;;;17.85;8.98;;;;;;;23.26;52.93;95683.19;5070994;28;20196;-62
2022/10/31 09:35:34;;;;;;;18.00;8.90;;;;;;;23.42;51.93;95687.38;5070878;28;20213;-62
2022/10/31 09:38:06;;;;;;;15.80;9.40;;;;;;;23.68;53.20;95655.69;5071070;28;20192;-60
2022/10/31 09:41:13;;;;;;;21.50;9.55;;;;;;;23.93;50.15;95737.47;5070852;28;20231;-60
2022/10/31 09:43:57;;;;;;;14.48;9.93;;;;;;;23.75;48.41;95752.66;5041216;28;20200;-62
2022/10/31 09:47:00;;;;;;;13.85;9.18;;;;;;;23.55;48.43;95718.69;5053142;28;20559;-60
2022/10/31 09:49:34;;;;;;;15.73;7.93;;;;;;;23.48;48.30;95711.78;5036956;28;20224;-61
2022/10/31 09:52:20;;;;;;;12.25;8.25;;;;;;;23.85;49.30;95668.25;5070994;28;20184;-60
2022/10/31 09:55:17;;;;;;;12.10;8.02;;;;;;;24.15;49.39;95654.13;5070888;28;20216;-61
2022/10/31 09:57:45;;;;;;;16.10;8.00;;;;;;;24.40;48.35;95685.69;5057824;28;20207;-61
2022/10/31 10:00:22;;;;;;;11.40;7.78;;;;;;;24.67;46.26;95738.69;5071000;28;20208;-63
2022/10/31 10:03:06;;;;;;;15.48;8.38;;;;;;;24.76;46.21;95712.41;5071040;28;20208;-62
2022/10/31 10:05:51;;;;;;;12.88;7.90;;;;;;;25.21;45.43;95733.66;5069333;28;20262;-63
2022/10/31 10:08:21;;;;;;;11.75;8.10;;;;;;;25.40;44.25;95754.59;5070889;28;20197;-60
2022/10/31 10:11:05;;;;;;;13.60;7.70;;;;;;;25.14;44.14;95727.59;5070555;28;20208;-60
2022/10/31 10:13:30;;;;;;;17.55;7.60;;;;;;;25.34;44.00;95672.03;5070718;28;20237;-61
2022/10/31 10:16:23;;;;;;;15.07;7.78;;;;;;;25.51;44.01;95656.88;5070762;28;20265;-60
2022/10/31 10:18:51;;;;;;;9.50;6.95;;;;;;;25.61;42.64;95689.34;5070527;28;20346;-60
2022/10/31 10:21:37;;;;;;;11.07;6.72;;;;;;;25.74;43.87;95636.47;5070579;28;20209;-59
2022/10/31 10:24:09;;;;;;;12.00;5.50;;;;;;;25.17;42.03;95673.34;5070594;28;20691;-60
2022/10/31 10:26:43;;;;;;;9.35;4.43;;;;;;;25.01;42.15;95662.50;5070414;28;20603;-61
2022/10/31 10:29:31;;;;;;;13.48;5.15;;;;;;;25.02;42.18;95640.66;5070939;28;20217;-62
2022/10/31 10:32:01;;;;;;;7.47;4.78;;;;;;;25.34;42.77;95622.53;5070433;28;20216;-62
2022/10/31 10:34:34;;;;;;;11.40;4.68;;;;;;;25.05;42.86;95617.63;5055978;28;20266;-63
2022/10/31 10:37:12;;;;;;;7.32;4.78;;;;;;;25.32;43.75;95563.84;5072547;28;20705;-62
2022/10/31 10:39:46;;;;;;;12.20;5.15;;;;;;;25.49;43.44;95578.91;5074014;28;20678;-62
2022/10/31 10:48:22;;;;;;;11.88;5.05;;;;;;;25.93;41.51;95622.66;5073821;28;20674;-59
2022/10/31 10:50:51;;;;;;;15.23;4.55;;;;;;;25.83;40.84;95629.25;5073013;28;20225;-58
2022/10/31 10:53:35;;;;;;;9.05;4.13;;;;;;;25.53;40.33;95640.03;5055707;28;20185;-59
2022/10/31 10:59:30;;;;;;;7.45;3.70;;;;;;;25.64;41.86;95579.53;5057780;28;20273;-60
2022/10/31 11:01:56;;;;;;;4.47;3.17;;;;;;;25.79;40.43;95623.66;5073279;28;20670;-59
2022/10/31 11:04:32;;;;;;;6.75;3.38;;;;;;;25.93;40.51;95606.22;5073349;28;20220;-60
2022/10/31 11:07:06;;;;;;;11.32;3.78;;;;;;;25.68;40.34;95606.00;5073375;28;20193;-59
2022/10/31 11:09:33;;;;;;;5.60;3.13;;;;;;;25.37;40.93;95577.88;5073614;28;20243;-60
2022/10/31 11:11:59;;;;;;;7.93;3.65;;;;;;;24.71;41.57;95545.63;5055291;28;20185;-61
2022/10/31 11:14:26;;;;;;;9.32;3.92;;;;;;;25.05;41.44;95555.16;5073424;28;20674;-62
2022/10/31 11:17:08;;;;;;;6.13;3.38;;;;;;;24.86;41.20;95556.75;5073395;28;20689;-62
2022/10/31 11:19:34;;;;;;;12.63;3.22;;;;;;;24.84;41.72;95535.31;5073523;28;20208;-62
2022/10/31 11:22:07;;;;;;;7.85;3.30;;;;;;;25.20;41.82;95540.19;5072910;28;20231;-62
2022/10/31 11:24:39;;;;;;;6.85;3.05;;;;;;;25.59;40.37;95568.13;5073350;28;20286;-61
2022/10/31 11:27:14;;;;;;;7.18;3.38;;;;;;;25.50;39.72;95590.94;5073098;28;20185;-62
2022/10/31 11:29:40;;;;;;;7.63;3.30;;;;;;;25.47;40.54;95547.06;5073538;28;20216;-62
2022/10/31 11:32:05;;;;;;;6.13;3.80;;;;;;;24.99;40.97;95537.75;5073011;28;20177;-61
2022/10/31 11:34:34;;;;;;;9.23;3.60;;;;;;;25.13;41.03;95539.38;5072865;28;20209;-61
2022/10/31 11:37:16;;;;;;;4.80;2.75;;;;;;;25.41;40.96;95514.00;5072943;28;20728;-60
2022/10/31 11:39:55;;;;;;;8.02;3.25;;;;;;;25.33;39.87;95552.44;5073337;28;20270;-61
2022/10/31 11:42:38;;;;;;;5.82;2.90;;;;;;;25.45;40.53;95530.06;5072723;28;20207;-60
2022/10/31 11:45:27;;;;;;;11.30;2.63;;;;;;;25.61;39.51;95546.06;5071732;28;20217;-60
2022/10/31 11:47:55;;;;;;;10.18;4.00;;;;;;;25.50;40.09;95535.44;5072826;28;20181;-61
2022/10/31 11:50:26;;;;;;;8.02;3.63;;;;;;;25.35;39.71;95537.41;5072940;28;20247;-61